createdAt,value
2019-05-18T00:01:32.819Z,15.50
2019-05-18T00:04:20.962Z,15.73
2019-05-18T00:06:50.100Z,16.13
2019-05-18T00:09:19.207Z,15.73
2019-05-18T00:11:48.177Z,15.73
2019-05-18T00:14:17.308Z,16.07
2019-05-18T00:16:46.417Z,15.60
2019-05-18T00:19:15.521Z,15.57
2019-05-18T00:21:44.447Z,16.23
2019-05-18T00:24:13.662Z,15.30
2019-05-18T00:26:42.925Z,16.87
2019-05-18T00:29:11.996Z,16.27
2019-05-18T00:31:41.191Z,15.33
2019-05-18T00:34:10.187Z,16.57
2019-05-18T00:36:39.384Z,17.00
2019-05-18T00:39:08.601Z,43.70
2019-05-18T00:41:37.678Z,25.70
2019-05-18T00:44:06.925Z,20.60
2019-05-18T00:46:35.915Z,18.83
2019-05-18T00:49:05.009Z,17.50
2019-05-18T00:51:34.110Z,17.67
2019-05-18T00:54:03.213Z,17.70
2019-05-18T00:56:32.321Z,17.87
2019-05-18T00:59:01.501Z,77.30
2019-05-18T01:01:30.865Z,39.03
2019-05-18T01:04:00.044Z,23.53
2019-05-18T01:06:29.857Z,19.50
2019-05-18T01:08:58.972Z,17.77
2019-05-18T01:11:28.338Z,17.50
2019-05-18T01:13:57.413Z,18.10
2019-05-18T01:16:26.505Z,17.93
2019-05-18T01:18:55.540Z,17.80
2019-05-18T01:21:24.663Z,17.53
2019-05-18T01:23:53.656Z,18.13
2019-05-18T01:26:22.602Z,17.70
2019-05-18T01:28:52.875Z,18.33
2019-05-18T01:31:21.997Z,18.77
2019-05-18T01:33:51.034Z,33.80
2019-05-18T01:36:20.312Z,28.73
2019-05-18T01:38:49.531Z,21.00
2019-05-18T01:41:18.554Z,18.27
2019-05-18T01:43:47.433Z,19.93
2019-05-18T01:46:16.320Z,19.03
2019-05-18T01:48:45.604Z,18.50
2019-05-18T01:51:14.693Z,18.27
2019-05-18T01:53:43.888Z,19.07
2019-05-18T01:56:12.988Z,20.60
2019-05-18T01:58:42.091Z,19.47
2019-05-18T02:01:10.983Z,20.33
2019-05-18T02:03:40.357Z,19.37
2019-05-18T02:06:09.406Z,19.77
2019-05-18T02:08:38.314Z,20.50
2019-05-18T02:11:07.630Z,19.23
2019-05-18T02:13:36.687Z,19.90
2019-05-18T02:16:05.778Z,19.50
2019-05-18T02:18:34.965Z,20.07
2019-05-18T02:21:04.138Z,20.13
2019-05-18T02:23:33.162Z,20.10
2019-05-18T02:26:02.069Z,21.80
2019-05-18T02:28:31.118Z,20.63
2019-05-18T02:31:00.012Z,20.00
2019-05-18T02:33:29.094Z,21.20
2019-05-18T02:35:58.043Z,20.80
2019-05-18T02:38:27.143Z,20.90
2019-05-18T02:40:55.993Z,20.83
2019-05-18T02:43:25.127Z,20.93
2019-05-18T02:45:54.178Z,21.60
2019-05-18T02:48:23.200Z,21.30
2019-05-18T02:50:52.319Z,21.17
2019-05-18T02:53:21.438Z,21.70
2019-05-18T02:55:50.380Z,21.53
2019-05-18T02:58:19.299Z,21.90
2019-05-18T03:00:48.505Z,21.80
2019-05-18T03:03:17.742Z,22.37
2019-05-18T03:05:46.745Z,21.67
2019-05-18T03:08:15.717Z,22.00
2019-05-18T03:10:44.984Z,22.60
2019-05-18T03:13:14.300Z,21.97
2019-05-18T03:15:43.443Z,22.50
2019-05-18T03:18:12.535Z,21.83
2019-05-18T03:20:41.574Z,23.03
2019-05-18T03:23:10.773Z,23.53
2019-05-18T03:25:39.931Z,23.70
2019-05-18T03:28:09.042Z,23.50
2019-05-18T03:30:38.157Z,22.40
2019-05-18T03:33:07.703Z,23.00
2019-05-18T03:35:36.779Z,23.77
2019-05-18T03:38:07.811Z,22.60
2019-05-18T03:40:36.629Z,24.43
2019-05-18T03:43:06.058Z,23.80
2019-05-18T03:45:35.066Z,23.67
2019-05-18T03:48:04.050Z,23.17
2019-05-18T03:50:33.061Z,24.03
2019-05-18T03:53:02.389Z,24.17
2019-05-18T03:55:31.749Z,33.30
2019-05-18T03:58:00.941Z,38.03
2019-05-18T04:00:30.191Z,28.93
2019-05-18T04:02:59.557Z,26.23
2019-05-18T04:05:28.590Z,25.57
2019-05-18T04:07:57.856Z,24.47
2019-05-18T04:10:27.876Z,24.10
2019-05-18T04:12:57.164Z,23.83
2019-05-18T04:15:27.281Z,23.30
2019-05-18T04:17:56.446Z,24.47
2019-05-18T04:20:25.917Z,23.20
2019-05-18T04:22:54.977Z,23.50
2019-05-18T04:25:24.505Z,24.23
2019-05-18T04:27:54.014Z,24.67
2019-05-18T04:30:23.172Z,23.37
2019-05-18T04:32:52.326Z,23.27
2019-05-18T04:35:21.808Z,23.70
2019-05-18T04:37:50.995Z,22.90
2019-05-18T04:40:20.138Z,24.43
2019-05-18T04:42:49.257Z,24.53
2019-05-18T04:45:19.655Z,23.03
2019-05-18T04:47:49.104Z,24.57
2019-05-18T04:50:18.252Z,24.60
2019-05-18T04:52:48.101Z,24.67
2019-05-18T04:55:17.322Z,24.37
2019-05-18T04:57:46.268Z,23.67
2019-05-18T05:00:15.484Z,23.77
2019-05-18T05:02:44.853Z,22.97
2019-05-18T05:05:14.410Z,23.63
2019-05-18T05:07:43.524Z,24.57
2019-05-18T05:10:13.243Z,24.43
2019-05-18T05:12:42.225Z,23.10
2019-05-18T05:15:11.414Z,23.93
2019-05-18T05:17:40.667Z,23.87
2019-05-18T05:20:19.282Z,22.20
2019-05-18T05:22:41.217Z,22.73
2019-05-18T05:25:13.156Z,23.63
2019-05-18T05:27:43.387Z,23.57
2019-05-18T05:30:13.229Z,22.63
2019-05-18T05:32:42.451Z,23.50
2019-05-18T05:35:12.321Z,22.90
2019-05-18T05:37:41.948Z,23.33
2019-05-18T05:40:11.432Z,23.70
2019-05-18T05:42:40.547Z,24.53
2019-05-18T05:45:11.106Z,22.43
2019-05-18T05:47:40.309Z,24.10
2019-05-18T05:50:10.494Z,35.10
2019-05-18T05:52:40.261Z,34.03
2019-05-18T05:55:10.442Z,30.10
2019-05-18T05:57:39.766Z,25.80
2019-05-18T06:00:09.902Z,25.10
2019-05-18T06:02:40.130Z,23.70
2019-05-18T06:05:12.157Z,22.73
2019-05-18T06:07:43.121Z,21.47
2019-05-18T06:10:12.771Z,21.90
2019-05-18T06:12:42.331Z,19.57
2019-05-18T06:15:13.073Z,21.23
2019-05-18T06:17:43.756Z,20.83
2019-05-18T06:20:14.181Z,20.50
2019-05-18T06:22:44.806Z,18.67
2019-05-18T06:25:17.350Z,19.90
2019-05-18T06:27:50.884Z,19.30
2019-05-18T06:30:20.414Z,22.77
2019-05-18T06:32:51.822Z,32.23
2019-05-18T06:35:22.204Z,22.37
2019-05-18T06:37:53.365Z,17.53
2019-05-18T06:40:22.653Z,16.00
2019-05-18T06:42:52.699Z,16.20
2019-05-18T06:45:22.288Z,15.77
2019-05-18T06:47:51.473Z,15.20
2019-05-18T06:50:28.296Z,16.63
2019-05-18T06:52:58.395Z,15.57
2019-05-18T06:55:28.008Z,15.30
2019-05-18T06:58:00.240Z,14.27
2019-05-18T07:00:37.450Z,14.90
2019-05-18T07:03:10.624Z,14.20
2019-05-18T07:06:14.163Z,12.97
2019-05-18T07:08:45.199Z,14.20
2019-05-18T07:11:14.779Z,15.40
2019-05-18T07:13:44.294Z,19.33
2019-05-18T07:16:15.936Z,17.47
2019-05-18T07:18:45.671Z,14.90
2019-05-18T07:21:22.240Z,11.70
2019-05-18T07:23:48.470Z,12.00
2019-05-18T07:26:17.933Z,11.80
2019-05-18T07:29:06.890Z,12.40
2019-05-18T07:31:36.302Z,13.20
2019-05-18T07:34:05.687Z,13.77
2019-05-18T07:36:34.880Z,12.30
2019-05-18T07:39:08.074Z,11.70
2019-05-18T07:41:46.361Z,10.63
2019-05-18T07:44:08.917Z,9.93
2019-05-18T07:46:38.777Z,10.30
2019-05-18T07:49:08.197Z,10.43
2019-05-18T07:51:38.343Z,10.73
2019-05-18T07:54:07.908Z,9.63
2019-05-18T07:56:37.603Z,9.90
2019-05-18T07:59:07.246Z,9.63
2019-05-18T08:01:36.903Z,9.93
2019-05-18T08:04:07.746Z,9.57
2019-05-18T08:06:37.349Z,9.00
2019-05-18T08:09:12.668Z,14.00
2019-05-18T08:11:42.318Z,9.70
2019-05-18T08:14:21.629Z,7.97
2019-05-18T08:16:52.314Z,8.93
2019-05-18T08:19:22.373Z,7.77
2019-05-18T08:21:53.627Z,9.27
2019-05-18T08:24:27.387Z,8.27
2019-05-18T08:26:56.549Z,7.87
2019-05-18T08:29:26.748Z,7.07
2019-05-18T08:31:56.245Z,6.90
2019-05-18T08:34:25.571Z,7.07
2019-05-18T08:36:55.139Z,9.30
2019-05-18T08:39:24.684Z,8.60
2019-05-18T08:41:56.479Z,7.27
2019-05-18T08:44:25.617Z,7.90
2019-05-18T08:46:55.112Z,11.07
2019-05-18T08:49:24.683Z,12.17
2019-05-18T08:52:07.493Z,10.30
2019-05-18T08:54:30.947Z,8.33
2019-05-18T08:57:00.010Z,7.53
2019-05-18T08:59:29.349Z,7.50
2019-05-18T09:01:58.531Z,7.00
2019-05-18T09:04:28.643Z,8.07
2019-05-18T09:06:58.061Z,7.77
2019-05-18T09:09:29.418Z,7.20
2019-05-18T09:11:58.458Z,7.60
2019-05-18T09:14:29.958Z,7.63
2019-05-18T09:16:59.535Z,7.17
2019-05-18T09:19:28.822Z,7.70
2019-05-18T09:21:58.140Z,7.80
2019-05-18T09:24:27.351Z,11.20
2019-05-18T09:26:56.491Z,10.23
2019-05-18T09:29:25.977Z,12.63
2019-05-18T09:31:55.916Z,11.03
2019-05-18T09:34:26.573Z,7.30
2019-05-18T09:36:56.262Z,7.13
2019-05-18T09:39:27.609Z,6.50
2019-05-18T09:41:57.563Z,6.83
2019-05-18T09:44:26.582Z,6.67
2019-05-18T09:46:55.865Z,7.27
2019-05-18T09:49:25.188Z,7.53
2019-05-18T09:51:54.228Z,10.10
2019-05-18T09:54:23.373Z,7.90
2019-05-18T09:56:52.568Z,7.80
2019-05-18T09:59:21.974Z,7.73
2019-05-18T10:01:51.203Z,7.30
2019-05-18T10:04:20.380Z,7.13
2019-05-18T10:06:49.562Z,6.37
2019-05-18T10:09:19.279Z,7.03
2019-05-18T10:11:48.627Z,5.90
2019-05-18T10:18:12.431Z,9.80
2019-05-18T10:20:41.895Z,7.73
2019-05-18T10:23:13.569Z,7.87
2019-05-18T10:25:42.294Z,7.10
2019-05-18T10:28:11.822Z,5.37
2019-05-18T10:30:41.884Z,5.63
2019-05-18T10:33:10.971Z,5.20
2019-05-18T10:35:40.466Z,5.47
2019-05-18T10:38:09.704Z,5.50
2019-05-18T10:40:38.905Z,5.47
2019-05-18T10:43:08.363Z,5.40
2019-05-18T10:45:37.447Z,5.80
2019-05-18T10:48:06.864Z,5.70
2019-05-18T10:50:36.008Z,5.63
2019-05-18T10:53:05.318Z,5.53
2019-05-18T10:55:34.744Z,6.00
2019-05-18T10:58:06.156Z,8.07
2019-05-18T11:00:37.150Z,7.00
2019-05-18T11:03:06.602Z,5.90
2019-05-18T11:05:36.019Z,5.40
2019-05-18T11:08:05.258Z,11.23
2019-05-18T11:10:34.616Z,10.70
2019-05-18T11:13:03.683Z,12.77
2019-05-18T11:15:32.850Z,8.07
2019-05-18T11:18:07.577Z,6.10
2019-05-18T11:20:36.753Z,6.70
2019-05-18T11:23:06.141Z,6.37
2019-05-18T11:25:35.276Z,5.87
2019-05-18T11:28:04.699Z,5.90
2019-05-18T11:30:34.197Z,6.43
2019-05-18T11:33:03.324Z,8.10
2019-05-18T11:35:36.095Z,9.30
2019-05-18T11:38:05.575Z,17.23
2019-05-18T11:40:34.877Z,9.80
2019-05-18T11:43:04.372Z,9.33
2019-05-18T11:45:34.399Z,9.97
2019-05-18T11:48:03.946Z,7.27
2019-05-18T11:50:33.318Z,7.00
2019-05-18T11:53:03.016Z,6.13
2019-05-18T11:55:32.172Z,5.93
2019-05-18T11:58:01.335Z,5.33
2019-05-18T12:00:31.181Z,5.07
2019-05-18T12:03:00.228Z,5.67
2019-05-18T12:05:31.686Z,5.60
2019-05-18T12:08:01.018Z,5.50
2019-05-18T12:10:30.389Z,4.80
2019-05-18T12:13:00.190Z,5.40
2019-05-18T12:15:30.038Z,4.80
2019-05-18T12:17:59.849Z,5.30
2019-05-18T12:20:31.256Z,4.90
2019-05-18T12:23:00.348Z,5.23
2019-05-18T12:25:30.879Z,6.33
2019-05-18T12:28:00.311Z,4.77
2019-05-18T12:30:29.544Z,4.90
2019-05-18T12:32:59.247Z,5.70
2019-05-18T12:35:28.397Z,5.93
2019-05-18T12:37:57.597Z,5.13
2019-05-18T12:40:27.111Z,4.40
2019-05-18T12:42:56.485Z,4.47
2019-05-18T12:45:26.150Z,4.70
2019-05-18T12:47:55.481Z,5.80
2019-05-18T12:50:26.603Z,4.70
2019-05-18T12:52:56.016Z,4.40
2019-05-18T12:55:25.353Z,7.03
2019-05-18T12:57:54.554Z,5.20
2019-05-18T13:00:24.551Z,4.43
2019-05-18T13:02:53.681Z,5.57
2019-05-18T13:05:23.597Z,6.73
2019-05-18T13:07:53.394Z,4.83
2019-05-18T13:10:23.076Z,4.53
2019-05-18T13:12:52.377Z,3.73
2019-05-18T13:15:22.206Z,6.33
2019-05-18T13:17:51.533Z,8.30
2019-05-18T13:20:21.831Z,4.00
2019-05-18T13:22:51.058Z,4.20
2019-05-18T13:25:21.073Z,3.63
2019-05-18T13:27:50.424Z,3.43
2019-05-18T13:30:21.838Z,4.20
2019-05-18T13:32:51.021Z,4.33
2019-05-18T13:35:20.301Z,3.80
2019-05-18T13:37:49.412Z,4.10
2019-05-18T13:40:20.414Z,3.90
2019-05-18T13:42:49.701Z,3.03
2019-05-18T13:45:19.290Z,2.80
2019-05-18T13:47:48.503Z,3.13
2019-05-18T13:50:18.130Z,14.20
2019-05-18T13:52:47.248Z,5.00
2019-05-18T13:55:19.461Z,3.70
2019-05-18T13:57:48.497Z,3.17
2019-05-18T14:00:18.310Z,3.23
2019-05-18T14:02:47.437Z,3.60
2019-05-18T14:05:17.234Z,3.10
2019-05-18T14:07:47.052Z,3.60
2019-05-18T14:10:18.356Z,3.47
2019-05-18T14:12:52.100Z,3.40
2019-05-18T14:15:25.606Z,2.93
2019-05-18T14:17:54.878Z,3.93
2019-05-18T14:20:26.296Z,3.23
2019-05-18T14:22:55.322Z,3.07
2019-05-18T14:25:27.428Z,3.73
2019-05-18T14:27:56.960Z,3.50
2019-05-18T14:30:26.771Z,2.57
2019-05-18T14:32:55.881Z,3.20
2019-05-18T14:35:26.603Z,2.90
2019-05-18T14:37:56.010Z,3.10
2019-05-18T14:40:25.247Z,3.40
2019-05-18T14:42:54.401Z,2.73
2019-05-18T14:45:24.238Z,7.00
2019-05-18T14:47:53.845Z,4.90
2019-05-18T14:50:24.066Z,4.97
2019-05-18T14:52:54.008Z,6.30
2019-05-18T14:55:33.814Z,4.50
2019-05-18T14:58:18.538Z,3.10
2019-05-18T15:00:47.746Z,3.27
2019-05-18T15:03:17.166Z,5.70
2019-05-18T15:05:46.514Z,5.20
2019-05-18T15:08:15.968Z,4.73
2019-05-18T15:10:45.141Z,3.50
2019-05-18T15:13:14.470Z,3.30
2019-05-18T15:15:43.879Z,3.73
2019-05-18T15:18:13.074Z,3.73
2019-05-18T15:20:42.904Z,4.50
2019-05-18T15:23:12.405Z,4.33
2019-05-18T15:25:50.139Z,7.60
2019-05-18T15:28:12.168Z,7.20
2019-05-18T15:30:41.365Z,6.07
2019-05-18T15:33:10.769Z,4.20
2019-05-18T15:35:40.296Z,3.40
2019-05-18T15:38:09.586Z,3.50
2019-05-18T15:40:38.877Z,3.33
2019-05-18T15:43:08.473Z,3.30
2019-05-18T15:45:38.149Z,3.20
2019-05-18T15:48:07.341Z,2.97
2019-05-18T15:50:38.600Z,3.27
2019-05-18T15:53:08.180Z,3.30
2019-05-18T15:55:37.621Z,4.43
2019-05-18T15:58:06.993Z,3.70
2019-05-18T16:00:36.427Z,4.00
2019-05-18T16:03:05.608Z,8.00
2019-05-18T16:05:34.850Z,5.30
2019-05-18T16:08:04.204Z,4.47
2019-05-18T16:10:33.298Z,5.20
2019-05-18T16:13:02.472Z,3.47
2019-05-18T16:15:31.660Z,3.70
2019-05-18T16:18:00.983Z,4.80
2019-05-18T16:20:30.649Z,3.30
2019-05-18T16:22:59.858Z,3.60
2019-05-18T16:25:31.815Z,3.30
2019-05-18T16:28:03.202Z,3.13
2019-05-18T16:30:32.607Z,3.10
2019-05-18T16:33:01.838Z,2.73
2019-05-18T16:35:31.241Z,3.30
2019-05-18T16:38:00.468Z,3.27
2019-05-18T16:40:29.737Z,4.03
2019-05-18T16:43:03.526Z,3.83
2019-05-18T16:45:32.672Z,4.00
2019-05-18T16:48:01.931Z,3.17
2019-05-18T16:50:36.601Z,3.60
2019-05-18T16:53:06.034Z,4.53
2019-05-18T16:55:35.466Z,5.47
2019-05-18T16:58:04.745Z,4.97
2019-05-18T17:00:34.070Z,5.27
2019-05-18T17:03:03.425Z,6.07
2019-05-18T17:05:32.936Z,4.20
2019-05-18T17:08:02.224Z,3.70
2019-05-18T17:10:31.949Z,3.40
2019-05-18T17:13:01.218Z,3.07
2019-05-18T17:15:30.452Z,4.37
2019-05-18T17:18:00.293Z,4.90
2019-05-18T17:20:29.574Z,4.50
2019-05-18T17:23:19.092Z,4.00
2019-05-18T17:25:48.276Z,3.00
2019-05-18T17:28:17.519Z,7.53
2019-05-18T17:30:46.861Z,10.13
2019-05-18T17:33:16.239Z,4.57
2019-05-18T17:35:59.449Z,3.70
2019-05-18T17:38:16.590Z,4.30
2019-05-18T17:40:45.892Z,4.00
2019-05-18T17:43:15.483Z,3.77
2019-05-18T17:45:44.814Z,3.57
2019-05-18T17:48:21.364Z,4.10
2019-05-18T17:50:51.047Z,3.00
2019-05-18T17:53:26.053Z,3.37
2019-05-18T17:55:55.881Z,3.70
2019-05-18T17:58:26.214Z,3.43
2019-05-18T18:00:55.399Z,3.30
2019-05-18T18:03:24.924Z,3.93
2019-05-18T18:05:54.091Z,3.87
2019-05-18T18:08:23.453Z,3.77
2019-05-18T18:10:53.243Z,3.70
2019-05-18T18:13:22.994Z,5.70
2019-05-18T18:15:53.655Z,4.93
2019-05-18T18:18:26.867Z,6.00
2019-05-18T18:21:00.688Z,5.07
2019-05-18T18:23:54.524Z,5.53
2019-05-18T18:26:26.339Z,4.63
2019-05-18T18:28:56.478Z,4.40
2019-05-18T18:31:28.748Z,5.30
2019-05-18T18:33:57.983Z,4.43
2019-05-18T18:36:28.488Z,4.33
2019-05-18T18:39:04.360Z,4.13
2019-05-18T18:41:33.915Z,4.50
2019-05-18T18:44:27.955Z,4.87
2019-05-18T18:46:58.508Z,4.80
2019-05-18T18:49:47.749Z,4.53
2019-05-18T18:52:16.958Z,4.77
2019-05-18T18:55:01.217Z,4.93
2019-05-18T18:57:40.629Z,4.67
2019-05-18T19:00:01.412Z,4.87
2019-05-18T19:02:32.942Z,5.00
2019-05-18T19:05:02.698Z,4.80
2019-05-18T19:07:32.101Z,5.80
2019-05-18T19:10:01.480Z,5.20
2019-05-18T19:12:31.732Z,5.10
2019-05-18T19:15:00.957Z,5.77
2019-05-18T19:17:30.203Z,5.93
2019-05-18T19:19:59.865Z,6.00
2019-05-18T19:22:29.263Z,5.70
2019-05-18T19:24:58.695Z,7.00
2019-05-18T19:27:55.029Z,6.57
2019-05-18T19:30:22.275Z,8.00
2019-05-18T19:32:51.540Z,7.83
2019-05-18T19:35:21.085Z,8.07
2019-05-18T19:37:50.615Z,8.40
2019-05-18T19:40:21.334Z,9.20
2019-05-18T19:42:51.408Z,9.07
2019-05-18T19:45:21.262Z,7.80
2019-05-18T19:47:50.862Z,7.37
2019-05-18T19:50:20.494Z,7.07
2019-05-18T19:52:50.411Z,7.00
2019-05-18T19:55:19.858Z,6.90
2019-05-18T19:57:50.364Z,12.13
2019-05-18T20:00:20.079Z,14.03
2019-05-18T20:02:51.497Z,34.70
2019-05-18T20:05:20.807Z,37.73
2019-05-18T20:07:50.084Z,20.93
2019-05-18T20:10:20.064Z,15.70
2019-05-18T20:12:50.426Z,15.77
2019-05-18T20:15:22.067Z,47.57
2019-05-18T20:17:56.947Z,42.83
2019-05-18T20:20:26.169Z,39.77
2019-05-18T20:22:55.828Z,23.73
2019-05-18T20:25:26.660Z,18.40
2019-05-18T20:28:23.399Z,31.40
2019-05-18T20:30:47.422Z,47.53
2019-05-18T20:33:17.264Z,32.93
2019-05-18T20:35:48.423Z,19.57
2019-05-18T20:38:22.571Z,13.53
2019-05-18T20:40:51.838Z,13.57
2019-05-18T20:43:21.547Z,13.23
2019-05-18T20:45:51.685Z,17.07
2019-05-18T20:48:24.875Z,44.40
2019-05-18T20:50:55.182Z,44.90
2019-05-18T20:53:26.029Z,44.83
2019-05-18T20:55:55.343Z,26.57
2019-05-18T20:58:38.735Z,15.63
2019-05-18T21:00:56.083Z,13.57
2019-05-18T21:03:27.084Z,31.57
2019-05-18T21:05:56.650Z,43.40
2019-05-18T21:08:26.447Z,51.70
2019-05-18T21:11:00.036Z,32.57
2019-05-18T21:13:30.090Z,22.23
2019-05-18T21:16:04.590Z,17.20
2019-05-18T21:18:35.989Z,13.97
2019-05-18T21:21:05.379Z,13.30
2019-05-18T21:23:36.047Z,12.67
2019-05-18T21:26:06.133Z,18.20
2019-05-18T21:28:36.038Z,29.87
2019-05-18T21:31:11.542Z,30.33
2019-05-18T21:33:45.250Z,37.53
2019-05-18T21:36:24.078Z,16.87
2019-05-18T21:38:56.341Z,14.73
2019-05-18T21:41:28.022Z,13.53
2019-05-18T21:43:57.444Z,15.97
2019-05-18T21:46:27.047Z,38.40
2019-05-18T21:48:56.451Z,29.13
2019-05-18T21:51:26.011Z,30.23
2019-05-18T21:53:55.162Z,18.47
2019-05-18T21:56:24.788Z,15.20
2019-05-18T21:58:53.876Z,14.70
2019-05-18T22:01:23.298Z,14.57
2019-05-18T22:03:52.708Z,14.13
2019-05-18T22:06:21.957Z,12.70
2019-05-18T22:08:51.487Z,11.93
2019-05-18T22:11:21.232Z,12.13
2019-05-18T22:13:50.609Z,11.80
2019-05-18T22:16:19.879Z,12.30
2019-05-18T22:18:49.443Z,11.57
2019-05-18T22:21:18.569Z,11.83
2019-05-18T22:23:47.806Z,10.67
2019-05-18T22:26:16.980Z,11.40
2019-05-18T22:28:46.162Z,12.33
2019-05-18T22:31:19.478Z,11.97
2019-05-18T22:33:47.529Z,11.17
2019-05-18T22:36:17.971Z,32.23
2019-05-18T22:38:47.383Z,26.80
2019-05-18T22:41:17.410Z,25.13
2019-05-18T22:43:46.607Z,23.77
2019-05-18T22:46:15.915Z,16.10
2019-05-18T22:48:45.052Z,14.27
2019-05-18T22:51:14.198Z,13.73
2019-05-18T22:53:46.366Z,13.83
2019-05-18T22:56:14.441Z,14.30
2019-05-18T22:58:43.510Z,14.33
2019-05-18T23:01:12.708Z,12.87
2019-05-18T23:03:41.856Z,12.97
2019-05-18T23:06:11.040Z,15.53
2019-05-18T23:08:40.175Z,16.33
2019-05-18T23:11:11.771Z,16.00
2019-05-18T23:13:41.121Z,13.47
2019-05-18T23:16:12.804Z,13.37
2019-05-18T23:18:55.870Z,12.70
2019-05-18T23:21:12.894Z,12.23
2019-05-18T23:23:42.100Z,12.10
2019-05-18T23:26:11.809Z,11.83
2019-05-18T23:28:41.149Z,12.33
2019-05-18T23:31:10.270Z,12.17
2019-05-18T23:33:39.522Z,12.83
2019-05-18T23:36:09.401Z,12.50
2019-05-18T23:38:38.666Z,12.70
2019-05-18T23:41:08.275Z,13.10
2019-05-18T23:43:37.853Z,12.93
2019-05-18T23:46:07.178Z,12.80
2019-05-18T23:48:36.398Z,12.73
2019-05-18T23:51:05.501Z,13.17
2019-05-18T23:53:34.871Z,12.63
2019-05-18T23:56:04.250Z,12.97
2019-05-18T23:58:33.633Z,12.83
